Time;durP1;ratioP1;P1;durP2;ratioP2;P2;SDS_P1;SDS_P2;PMS_P1;PMS_P2;Temp;Humidity;BMP_temperature;BMP_pressure;BME280_temperature;BME280_humidity;BME280_pressure;Samples;Min_cycle;Max_cycle;Signal;HPM_P1;HPM_P2
2021/11/30 00:01:23;;;;;;;;;;;23.60;50.80;;;;;;1580053;74;678;-66
2021/11/30 00:03:24;;;;;;;;;;;23.60;50.70;;;;;;1580476;74;733;-66
2021/11/30 00:05:26;;;;;;;;;;;23.60;50.80;;;;;;1580471;75;818;-66
2021/11/30 00:07:28;;;;;;;;;;;23.60;50.80;;;;;;1580187;74;1163;-66
2021/11/30 00:11:40;;;;;;;;;;;23.60;50.90;;;;;;1550219;76;858;-67
2021/11/30 00:13:42;;;;;;;;;;;23.70;51.00;;;;;;1577823;74;677;-67
2021/11/30 00:15:44;;;;;;;;;;;23.60;50.80;;;;;;1580449;74;855;-66
2021/11/30 00:17:46;;;;;;;;;;;23.60;50.80;;;;;;1576946;74;1929;-70
2021/11/30 00:19:49;;;;;;;;;;;23.60;50.80;;;;;;1580505;74;674;-68
2021/11/30 00:21:50;;;;;;;;;;;23.70;50.90;;;;;;1580413;74;746;-69
2021/11/30 00:23:52;;;;;;;;;;;23.60;50.80;;;;;;1580237;74;719;-69
2021/11/30 00:25:54;;;;;;;;;;;23.60;50.80;;;;;;1580325;74;684;-69
2021/11/30 00:27:56;;;;;;;;;;;23.60;50.80;;;;;;1576129;74;1141;-68
2021/11/30 00:29:58;;;;;;;;;;;23.60;50.90;;;;;;1580128;74;723;-66
2021/11/30 00:32:00;;;;;;;;;;;23.60;50.90;;;;;;1580479;75;672;-68
2021/11/30 00:34:02;;;;;;;;;;;23.60;51.00;;;;;;1576045;74;936;-68
2021/11/30 00:36:04;;;;;;;;;;;23.70;51.00;;;;;;1580119;74;714;-68
2021/11/30 00:38:06;;;;;;;;;;;23.60;51.00;;;;;;1580472;74;1982;-68
2021/11/30 00:40:08;;;;;;;;;;;23.60;51.00;;;;;;1580554;74;635;-68
2021/11/30 00:42:10;;;;;;;;;;;23.70;51.10;;;;;;1580025;74;685;-68
2021/11/30 00:44:14;;;;;;;;;;;23.60;50.90;;;;;;1580547;74;629;-68
2021/11/30 00:46:18;;;;;;;;;;;23.60;50.90;;;;;;1580409;74;1190;-70
2021/11/30 00:48:22;;;;;;;;;;;23.60;50.80;;;;;;1580085;74;1473;-68
2021/11/30 00:50:24;;;;;;;;;;;23.70;51.00;;;;;;1576618;74;1616;-68
2021/11/30 00:52:26;;;;;;;;;;;23.60;50.90;;;;;;1580315;74;769;-70
2021/11/30 00:54:28;;;;;;;;;;;23.70;51.00;;;;;;1573431;74;700;-69
2021/11/30 00:56:30;;;;;;;;;;;23.60;50.90;;;;;;1580419;74;723;-69
2021/11/30 00:58:33;;;;;;;;;;;23.70;51.00;;;;;;1580245;74;1946;-69
2021/11/30 01:00:35;;;;;;;;;;;23.60;50.80;;;;;;1580207;74;791;-69
2021/11/30 01:02:37;;;;;;;;;;;23.60;50.80;;;;;;1576132;74;810;-67
2021/11/30 01:04:39;;;;;;;;;;;23.60;50.70;;;;;;1580239;74;719;-68
2021/11/30 01:06:41;;;;;;;;;;;23.60;50.90;;;;;;1580321;74;690;-67
2021/11/30 01:08:43;;;;;;;;;;;23.60;50.90;;;;;;1580460;74;1152;-68
2021/11/30 01:10:45;;;;;;;;;;;23.60;50.90;;;;;;1580202;74;804;-68
2021/11/30 01:12:47;;;;;;;;;;;23.60;50.90;;;;;;1580264;74;710;-66
2021/11/30 01:14:49;;;;;;;;;;;23.60;50.90;;;;;;1580493;74;772;-65
2021/11/30 01:16:51;;;;;;;;;;;23.60;51.00;;;;;;1580169;74;762;-66
2021/11/30 01:18:53;;;;;;;;;;;23.60;50.90;;;;;;1580494;74;1958;-66
2021/11/30 01:20:54;;;;;;;;;;;23.60;51.00;;;;;;1580429;74;722;-67
2021/11/30 01:22:57;;;;;;;;;;;23.60;51.00;;;;;;1577958;74;785;-67
2021/11/30 01:24:58;;;;;;;;;;;23.70;51.30;;;;;;1580428;74;666;-68
2021/11/30 01:27:00;;;;;;;;;;;23.70;51.40;;;;;;1580540;74;772;-67
2021/11/30 01:29:02;;;;;;;;;;;23.60;51.20;;;;;;1580192;74;1170;-67
2021/11/30 01:31:04;;;;;;;;;;;23.60;51.20;;;;;;1580445;74;745;-66
2021/11/30 01:33:07;;;;;;;;;;;23.60;51.20;;;;;;1580391;74;883;-67
2021/11/30 01:35:09;;;;;;;;;;;23.60;51.20;;;;;;1579956;74;706;-67
2021/11/30 01:37:15;;;;;;;;;;;23.70;51.30;;;;;;1580481;74;746;-69
2021/11/30 01:39:17;;;;;;;;;;;23.60;51.20;;;;;;1576060;74;2002;-67
2021/11/30 01:41:19;;;;;;;;;;;23.70;51.30;;;;;;1580197;74;691;-68
2021/11/30 01:43:25;;;;;;;;;;;23.60;51.10;;;;;;1580412;74;714;-67
2021/11/30 01:45:45;;;;;;;;;;;23.70;51.30;;;;;;1580006;74;1636;-67
2021/11/30 01:48:10;;;;;;;;;;;23.70;51.30;;;;;;1577588;74;1604;-67
2021/11/30 01:49:48;;;;;;;;;;;23.60;51.20;;;;;;1572739;74;1375;-66
2021/11/30 01:51:50;;;;;;;;;;;23.60;51.20;;;;;;1578760;74;735;-69
2021/11/30 01:53:52;;;;;;;;;;;23.60;51.20;;;;;;1580584;74;790;-67
2021/11/30 01:55:54;;;;;;;;;;;23.60;51.20;;;;;;1580401;74;772;-69
2021/11/30 01:57:56;;;;;;;;;;;23.70;51.20;;;;;;1580307;74;1133;-67
2021/11/30 01:59:58;;;;;;;;;;;23.60;51.00;;;;;;1575747;74;1935;-67
2021/11/30 02:02:00;;;;;;;;;;;23.60;51.00;;;;;;1575540;74;724;-68
2021/11/30 02:04:02;;;;;;;;;;;23.70;51.30;;;;;;1571600;74;691;-68
2021/11/30 02:06:04;;;;;;;;;;;23.60;51.10;;;;;;1575473;74;772;-68
2021/11/30 02:08:06;;;;;;;;;;;23.60;51.20;;;;;;1575343;74;1103;-67
2021/11/30 02:10:08;;;;;;;;;;;23.60;51.20;;;;;;1574986;74;757;-67
2021/11/30 02:12:10;;;;;;;;;;;23.60;51.30;;;;;;1575182;74;631;-67
2021/11/30 02:14:12;;;;;;;;;;;23.70;51.30;;;;;;1575400;74;784;-67
2021/11/30 02:16:17;;;;;;;;;;;23.60;51.30;;;;;;1574994;74;573;-67
2021/11/30 02:18:24;;;;;;;;;;;23.60;51.30;;;;;;1574964;74;1912;-68
2021/11/30 02:20:26;;;;;;;;;;;23.60;51.30;;;;;;1575122;74;628;-67
2021/11/30 02:22:28;;;;;;;;;;;23.60;51.20;;;;;;1575130;74;727;-70
2021/11/30 02:24:30;;;;;;;;;;;23.60;51.20;;;;;;1575214;74;734;-68
2021/11/30 02:26:32;;;;;;;;;;;23.60;51.10;;;;;;1575182;74;726;-68
2021/11/30 02:28:34;;;;;;;;;;;23.60;51.10;;;;;;1575327;74;1174;-69
2021/11/30 02:30:36;;;;;;;;;;;23.70;51.20;;;;;;1575585;75;703;-67
2021/11/30 02:32:38;;;;;;;;;;;23.60;51.10;;;;;;1574961;75;742;-69
2021/11/30 02:34:40;;;;;;;;;;;23.60;51.10;;;;;;1575658;75;722;-67
2021/11/30 02:38:46;;;;;;;;;;;23.60;51.00;;;;;;1575145;74;1930;-66
2021/11/30 02:40:48;;;;;;;;;;;23.70;51.10;;;;;;1570088;75;740;-66
2021/11/30 02:42:50;;;;;;;;;;;23.70;51.20;;;;;;1548777;77;778;-65
2021/11/30 02:44:51;;;;;;;;;;;23.70;51.10;;;;;;1548453;77;675;-66
2021/11/30 02:46:55;;;;;;;;;;;23.60;51.10;;;;;;1548844;77;691;-68
2021/11/30 02:48:57;;;;;;;;;;;23.60;51.10;;;;;;1548319;75;1674;-66
2021/11/30 02:51:01;;;;;;;;;;;23.60;51.10;;;;;;1567381;75;1090;-67
2021/11/30 02:53:02;;;;;;;;;;;23.70;51.30;;;;;;1575295;75;1595;-67
2021/11/30 02:55:04;;;;;;;;;;;23.60;51.20;;;;;;1572038;74;780;-68
2021/11/30 02:57:06;;;;;;;;;;;23.70;51.20;;;;;;1575190;75;801;-67
2021/11/30 02:59:08;;;;;;;;;;;23.60;51.00;;;;;;1575453;74;1953;-67
2021/11/30 03:01:12;;;;;;;;;;;23.60;51.00;;;;;;1577220;75;754;-68
2021/11/30 03:03:14;;;;;;;;;;;23.70;51.10;;;;;;1576604;75;664;-66
2021/11/30 03:05:16;;;;;;;;;;;23.60;51.00;;;;;;1575556;75;784;-67
2021/11/30 03:07:20;;;;;;;;;;;23.60;51.00;;;;;;1575442;75;718;-66
2021/11/30 03:09:22;;;;;;;;;;;23.60;51.00;;;;;;1574215;74;1083;-66
2021/11/30 03:11:23;;;;;;;;;;;23.60;51.10;;;;;;1575635;75;793;-66
2021/11/30 03:13:25;;;;;;;;;;;23.60;51.10;;;;;;1575296;75;718;-67
2021/11/30 03:15:27;;;;;;;;;;;23.60;51.10;;;;;;1575701;75;792;-67
2021/11/30 03:17:29;;;;;;;;;;;23.60;51.10;;;;;;1575641;74;1128;-64
2021/11/30 03:19:31;;;;;;;;;;;23.60;51.10;;;;;;1575245;75;1930;-65
2021/11/30 03:21:33;;;;;;;;;;;23.60;51.10;;;;;;1571763;75;645;-66
2021/11/30 03:23:35;;;;;;;;;;;23.60;51.00;;;;;;1576721;75;804;-66
2021/11/30 03:25:37;;;;;;;;;;;23.70;51.20;;;;;;1564028;75;722;-66
2021/11/30 03:27:39;;;;;;;;;;;23.70;51.20;;;;;;1577850;74;1230;-67
2021/11/30 03:29:41;;;;;;;;;;;23.60;51.00;;;;;;1560972;75;760;-66
2021/11/30 03:34:00;;;;;;;;;;;23.70;51.00;;;;;;1580792;75;779;-66
2021/11/30 03:36:02;;;;;;;;;;;23.60;50.80;;;;;;1579576;75;746;-66
2021/11/30 03:38:04;;;;;;;;;;;23.70;50.90;;;;;;1575321;74;1135;-66
2021/11/30 03:40:10;;;;;;;;;;;23.70;51.00;;;;;;1575464;75;1926;-68
2021/11/30 03:42:10;;;;;;;;;;;23.70;51.00;;;;;;1574770;75;1077;-68
2021/11/30 03:44:12;;;;;;;;;;;23.70;51.10;;;;;;1575041;75;706;-68
2021/11/30 03:46:13;;;;;;;;;;;23.60;50.80;;;;;;1575592;75;695;-68
2021/11/30 03:48:15;;;;;;;;;;;23.70;50.90;;;;;;1575495;74;1083;-69
2021/11/30 03:50:17;;;;;;;;;;;23.60;50.80;;;;;;1575381;75;706;-69
2021/11/30 03:52:19;;;;;;;;;;;23.60;51.00;;;;;;1575171;74;789;-74
2021/11/30 03:54:21;;;;;;;;;;;23.60;50.80;;;;;;1574595;74;731;-73
2021/11/30 03:56:23;;;;;;;;;;;23.60;50.90;;;;;;1573578;74;686;-73
2021/11/30 03:58:25;;;;;;;;;;;23.50;51.20;;;;;;1581175;71;3141;-68
2021/11/30 04:00:27;;;;;;;;;;;23.40;51.20;;;;;;1580208;74;1953;-68
2021/11/30 04:02:28;;;;;;;;;;;23.40;51.40;;;;;;1599193;74;754;-69
2021/11/30 04:04:34;;;;;;;;;;;23.30;51.50;;;;;;1599303;74;686;-69
2021/11/30 04:06:34;;;;;;;;;;;23.30;51.70;;;;;;1599212;74;1905;-70
2021/11/30 04:08:38;;;;;;;;;;;23.20;51.60;;;;;;1611674;73;1216;-69
2021/11/30 04:10:39;;;;;;;;;;;23.20;51.80;;;;;;1628696;73;1649;-70
2021/11/30 04:12:41;;;;;;;;;;;23.20;51.90;;;;;;1597123;73;813;-69
2021/11/30 04:14:43;;;;;;;;;;;23.20;52.00;;;;;;1560070;75;740;-69
2021/11/30 04:16:45;;;;;;;;;;;23.20;52.00;;;;;;1548926;77;618;-70
2021/11/30 04:18:47;;;;;;;;;;;23.20;52.10;;;;;;1548949;77;1077;-70
2021/11/30 04:20:49;;;;;;;;;;;23.20;52.10;;;;;;1552700;76;1951;-70
2021/11/30 04:22:51;;;;;;;;;;;23.20;52.20;;;;;;1554309;76;743;-69
2021/11/30 04:24:53;;;;;;;;;;;23.20;52.20;;;;;;1551978;75;725;-68
2021/11/30 04:26:55;;;;;;;;;;;23.10;52.20;;;;;;1549096;77;788;-67
2021/11/30 04:28:57;;;;;;;;;;;23.10;52.30;;;;;;1549185;77;1174;-67
2021/11/30 04:30:59;;;;;;;;;;;23.20;52.50;;;;;;1533703;75;768;-67
2021/11/30 04:33:01;;;;;;;;;;;23.20;52.60;;;;;;1521814;78;663;-64
2021/11/30 04:35:03;;;;;;;;;;;23.10;52.60;;;;;;1545195;76;768;-65
2021/11/30 04:37:05;;;;;;;;;;;23.10;52.60;;;;;;1523709;76;820;-67
2021/11/30 04:39:06;;;;;;;;;;;23.20;52.60;;;;;;1521904;78;1960;-65
2021/11/30 04:41:08;;;;;;;;;;;23.10;52.50;;;;;;1536315;75;806;-70
2021/11/30 04:43:10;;;;;;;;;;;23.20;52.70;;;;;;1548794;76;695;-68
2021/11/30 04:45:23;;;;;;;;;;;23.20;52.70;;;;;;1554481;76;646;-68
2021/11/30 04:47:19;;;;;;;;;;;23.20;52.60;;;;;;1553305;76;1612;-70
2021/11/30 04:49:57;;;;;;;;;;;23.20;52.60;;;;;;1554113;75;1168;-68
2021/11/30 04:51:32;;;;;;;;;;;23.20;52.60;;;;;;1553197;76;1417;-68
2021/11/30 04:53:33;;;;;;;;;;;23.20;52.60;;;;;;1540310;75;845;-68
2021/11/30 04:55:35;;;;;;;;;;;23.20;52.60;;;;;;1548506;76;826;-70
2021/11/30 04:57:37;;;;;;;;;;;23.20;52.60;;;;;;1549181;77;730;-68
2021/11/30 04:59:39;;;;;;;;;;;23.10;52.50;;;;;;1548788;77;1960;-69
2021/11/30 05:01:41;;;;;;;;;;;23.10;52.60;;;;;;1546748;75;793;-68
2021/11/30 05:03:43;;;;;;;;;;;23.10;52.60;;;;;;1545545;75;796;-69
2021/11/30 05:05:45;;;;;;;;;;;23.20;52.50;;;;;;1565340;74;736;-71
2021/11/30 05:07:47;;;;;;;;;;;23.20;52.60;;;;;;1532345;77;739;-69
2021/11/30 05:09:49;;;;;;;;;;;23.20;52.50;;;;;;1535865;77;734;-68
2021/11/30 05:11:51;;;;;;;;;;;23.10;52.50;;;;;;1531388;76;787;-65
2021/11/30 05:13:53;;;;;;;;;;;23.20;52.50;;;;;;1563325;75;668;-68
2021/11/30 05:15:54;;;;;;;;;;;23.20;52.50;;;;;;1553011;76;780;-71
2021/11/30 05:17:56;;;;;;;;;;;23.20;52.40;;;;;;1564825;76;1148;-69
2021/11/30 05:19:58;;;;;;;;;;;23.10;52.40;;;;;;1564689;76;1935;-68
2021/11/30 05:22:00;;;;;;;;;;;23.20;52.40;;;;;;1564590;76;736;-69
2021/11/30 05:24:04;;;;;;;;;;;23.20;52.40;;;;;;1541164;77;771;-69
2021/11/30 05:26:05;;;;;;;;;;;23.20;52.30;;;;;;1540019;77;1686;-69
2021/11/30 05:28:07;;;;;;;;;;;23.10;52.40;;;;;;1541211;77;1108;-69
2021/11/30 05:30:12;;;;;;;;;;;23.20;52.40;;;;;;1541069;77;803;-70
2021/11/30 05:32:13;;;;;;;;;;;23.10;52.40;;;;;;1540916;76;1675;-68
2021/11/30 05:34:15;;;;;;;;;;;23.10;52.30;;;;;;1541250;77;745;-68
2021/11/30 05:36:18;;;;;;;;;;;23.10;52.40;;;;;;1526569;77;764;-69
2021/11/30 05:38:20;;;;;;;;;;;23.20;52.40;;;;;;1514270;78;1179;-68
2021/11/30 05:40:21;;;;;;;;;;;23.20;52.50;;;;;;1514371;78;1926;-68
2021/11/30 05:42:23;;;;;;;;;;;23.10;52.40;;;;;;1533634;77;726;-68
2021/11/30 05:44:25;;;;;;;;;;;23.20;52.40;;;;;;1541202;77;671;-67
2021/11/30 05:46:27;;;;;;;;;;;23.20;52.40;;;;;;1541264;76;800;-68
2021/11/30 05:48:34;;;;;;;;;;;23.10;52.40;;;;;;1540629;76;1191;-68
2021/11/30 05:50:33;;;;;;;;;;;23.20;52.40;;;;;;1558583;75;1567;-68
2021/11/30 05:52:35;;;;;;;;;;;23.10;52.40;;;;;;1526079;76;810;-69
2021/11/30 05:54:37;;;;;;;;;;;23.20;52.40;;;;;;1554948;76;788;-68
2021/11/30 05:56:40;;;;;;;;;;;23.20;52.50;;;;;;1548898;75;798;-67
2021/11/30 05:58:44;;;;;;;;;;;23.20;52.40;;;;;;1560226;75;1104;-68
2021/11/30 06:00:46;;;;;;;;;;;23.20;52.40;;;;;;1539993;76;1928;-69
2021/11/30 06:02:57;;;;;;;;;;;23.20;52.40;;;;;;1539535;76;767;-69
2021/11/30 06:04:58;;;;;;;;;;;23.20;52.50;;;;;;1536401;76;1702;-70
2021/11/30 06:06:59;;;;;;;;;;;23.20;52.50;;;;;;1565814;74;745;-69
2021/11/30 06:09:02;;;;;;;;;;;23.20;52.50;;;;;;1561620;75;1137;-69
2021/11/30 06:11:04;;;;;;;;;;;23.20;52.50;;;;;;1561659;75;784;-69
2021/11/30 06:13:06;;;;;;;;;;;23.20;52.40;;;;;;1561247;75;804;-68
2021/11/30 06:15:08;;;;;;;;;;;23.20;52.30;;;;;;1557244;75;771;-68
2021/11/30 06:17:10;;;;;;;;;;;23.20;52.30;;;;;;1561571;75;796;-69
2021/11/30 06:19:14;;;;;;;;;;;23.20;52.50;;;;;;1561292;75;1168;-68
2021/11/30 06:21:17;;;;;;;;;;;23.20;52.50;;;;;;1553168;75;1998;-71
2021/11/30 06:23:19;;;;;;;;;;;23.20;52.50;;;;;;1561436;75;747;-67
2021/11/30 06:25:20;;;;;;;;;;;23.20;52.50;;;;;;1560975;75;725;-69
2021/11/30 06:27:22;;;;;;;;;;;23.20;52.40;;;;;;1560789;75;785;-71
2021/11/30 06:29:24;;;;;;;;;;;23.20;52.30;;;;;;1560721;75;1145;-69
2021/11/30 06:31:26;;;;;;;;;;;23.20;52.50;;;;;;1559839;76;697;-69
2021/11/30 06:33:28;;;;;;;;;;;23.20;52.40;;;;;;1556164;75;722;-70
2021/11/30 06:35:30;;;;;;;;;;;23.20;52.50;;;;;;1561801;76;722;-68
2021/11/30 06:37:32;;;;;;;;;;;23.30;52.40;;;;;;1557646;75;730;-70
2021/11/30 06:39:34;;;;;;;;;;;23.20;52.30;;;;;;1552778;75;1146;-67
2021/11/30 06:41:36;;;;;;;;;;;23.30;52.40;;;;;;1553682;75;1984;-68
2021/11/30 06:43:38;;;;;;;;;;;23.30;52.30;;;;;;1551705;75;730;-69
2021/11/30 06:45:40;;;;;;;;;;;23.20;52.30;;;;;;1559579;75;762;-68
2021/11/30 06:47:43;;;;;;;;;;;23.20;52.30;;;;;;1565771;74;735;-66
2021/11/30 06:49:45;;;;;;;;;;;23.30;52.30;;;;;;1568722;75;1287;-69
2021/11/30 06:51:47;;;;;;;;;;;23.40;52.20;;;;;;1559309;75;802;-72
2021/11/30 06:53:49;;;;;;;;;;;23.40;52.00;;;;;;1560969;76;614;-68
2021/11/30 06:55:51;;;;;;;;;;;23.30;52.10;;;;;;1563055;76;740;-67
2021/11/30 06:57:52;;;;;;;;;;;23.30;52.10;;;;;;1563956;76;1126;-68
2021/11/30 06:59:59;;;;;;;;;;;23.30;52.20;;;;;;1563596;76;1934;-67
2021/11/30 07:01:58;;;;;;;;;;;23.30;52.20;;;;;;1563580;76;1676;-68
2021/11/30 07:04:02;;;;;;;;;;;23.30;52.20;;;;;;1562925;75;728;-70
2021/11/30 07:06:22;;;;;;;;;;;23.30;52.30;;;;;;1561488;75;1490;-68
2021/11/30 07:08:21;;;;;;;;;;;23.20;52.20;;;;;;1558254;75;1660;-68
2021/11/30 07:14:45;;;;;;;;;;;23.30;52.30;;;;;;1561220;75;865;-67
2021/11/30 07:16:49;;;;;;;;;;;23.30;52.30;;;;;;1559805;75;789;-67
2021/11/30 07:18:51;;;;;;;;;;;23.30;52.30;;;;;;1559768;76;1162;-68
2021/11/30 07:20:53;;;;;;;;;;;23.40;52.30;;;;;;1555921;76;1909;-68
2021/11/30 07:22:57;;;;;;;;;;;23.30;52.30;;;;;;1560378;76;662;-67
2021/11/30 07:24:59;;;;;;;;;;;23.30;52.20;;;;;;1565767;76;2066;-66
2021/11/30 07:27:00;;;;;;;;;;;23.50;52.20;;;;;;1566781;76;804;-63
2021/11/30 07:29:04;;;;;;;;;;;23.60;51.60;;;;;;1565912;75;1185;-64
2021/11/30 07:31:09;;;;;;;;;;;23.70;51.00;;;;;;1558798;75;695;-63
2021/11/30 07:33:10;;;;;;;;;;;23.80;50.70;;;;;;1558141;76;1670;-63
2021/11/30 07:35:12;;;;;;;;;;;23.90;50.60;;;;;;1560285;76;819;-64
2021/11/30 07:37:14;;;;;;;;;;;23.90;50.50;;;;;;1561719;76;753;-64
2021/11/30 07:39:16;;;;;;;;;;;23.90;50.30;;;;;;1559434;75;1154;-63
2021/11/30 07:41:18;;;;;;;;;;;24.00;49.90;;;;;;1553611;75;1935;-63
2021/11/30 07:43:20;;;;;;;;;;;24.00;50.00;;;;;;1561344;75;721;-64
2021/11/30 07:45:22;;;;;;;;;;;23.90;50.10;;;;;;1565540;74;727;-63
2021/11/30 07:47:24;;;;;;;;;;;23.90;50.00;;;;;;1525920;76;753;-64
2021/11/30 07:49:26;;;;;;;;;;;24.00;50.00;;;;;;1564332;74;1164;-60
2021/11/30 07:51:28;;;;;;;;;;;23.90;49.90;;;;;;1563801;74;734;-66
2021/11/30 07:53:30;;;;;;;;;;;23.90;49.80;;;;;;1565656;74;664;-65
2021/11/30 07:55:32;;;;;;;;;;;23.90;49.60;;;;;;1561923;75;805;-63
2021/11/30 07:57:34;;;;;;;;;;;23.90;49.80;;;;;;1558567;75;778;-63
2021/11/30 07:59:38;;;;;;;;;;;23.90;49.80;;;;;;1566545;74;1160;-63
2021/11/30 08:01:40;;;;;;;;;;;23.90;49.60;;;;;;1578153;74;1922;-63
2021/11/30 08:03:43;;;;;;;;;;;24.00;49.40;;;;;;1579559;74;750;-63
2021/11/30 08:05:45;;;;;;;;;;;24.00;49.40;;;;;;1575598;74;732;-63
2021/11/30 08:07:47;;;;;;;;;;;23.90;49.40;;;;;;1557467;76;729;-63
2021/11/30 08:09:49;;;;;;;;;;;23.90;49.30;;;;;;1555914;76;692;-64
2021/11/30 08:11:51;;;;;;;;;;;23.90;49.30;;;;;;1557325;76;735;-63
2021/11/30 08:13:53;;;;;;;;;;;23.90;49.30;;;;;;1557598;76;750;-64
2021/11/30 08:15:55;;;;;;;;;;;23.90;49.30;;;;;;1556856;76;852;-63
2021/11/30 08:17:57;;;;;;;;;;;23.90;49.20;;;;;;1554754;76;1089;-63
2021/11/30 08:19:59;;;;;;;;;;;23.80;49.10;;;;;;1556150;76;713;-63
2021/11/30 08:22:01;;;;;;;;;;;23.90;49.10;;;;;;1556744;76;1920;-63
2021/11/30 08:24:03;;;;;;;;;;;23.90;49.10;;;;;;1547788;76;789;-63
2021/11/30 08:26:06;;;;;;;;;;;23.90;49.10;;;;;;1557146;76;817;-63
2021/11/30 08:28:08;;;;;;;;;;;23.80;48.90;;;;;;1553913;76;1129;-63
2021/11/30 08:30:11;;;;;;;;;;;23.80;48.90;;;;;;1555983;76;736;-63
2021/11/30 08:32:12;;;;;;;;;;;23.80;48.90;;;;;;1564981;76;935;-64
2021/11/30 08:34:14;;;;;;;;;;;23.80;48.80;;;;;;1570392;75;600;-62
2021/11/30 08:36:16;;;;;;;;;;;23.70;48.80;;;;;;1597149;74;743;-64
2021/11/30 08:38:19;;;;;;;;;;;23.70;48.70;;;;;;1599150;74;1115;-63
2021/11/30 08:40:21;;;;;;;;;;;23.70;48.60;;;;;;1598910;74;659;-63
2021/11/30 08:42:23;;;;;;;;;;;23.80;48.50;;;;;;1598972;74;1926;-62
2021/11/30 08:44:25;;;;;;;;;;;23.70;48.50;;;;;;1594695;74;720;-64
2021/11/30 08:46:27;;;;;;;;;;;23.70;48.40;;;;;;1593630;74;801;-63
2021/11/30 08:48:28;;;;;;;;;;;23.70;48.40;;;;;;1594982;74;1120;-63
2021/11/30 08:50:30;;;;;;;;;;;23.70;48.30;;;;;;1594847;74;634;-63
2021/11/30 08:52:32;;;;;;;;;;;23.70;48.10;;;;;;1594708;74;727;-63
2021/11/30 08:54:34;;;;;;;;;;;23.70;48.10;;;;;;1593013;74;807;-64
2021/11/30 08:56:36;;;;;;;;;;;23.60;47.90;;;;;;1594806;74;772;-63
2021/11/30 08:58:38;;;;;;;;;;;23.60;47.80;;;;;;1594791;74;1238;-62
2021/11/30 09:00:40;;;;;;;;;;;23.70;47.90;;;;;;1594860;74;1915;-63
2021/11/30 09:02:42;;;;;;;;;;;23.60;47.70;;;;;;1593620;74;742;-63
2021/11/30 09:04:44;;;;;;;;;;;23.60;47.60;;;;;;1605309;73;806;-63
2021/11/30 09:06:46;;;;;;;;;;;23.60;47.50;;;;;;1615021;73;749;-65
2021/11/30 09:08:48;;;;;;;;;;;23.60;47.50;;;;;;1597345;74;1170;-64
2021/11/30 09:10:50;;;;;;;;;;;23.60;47.40;;;;;;1597602;74;702;-63
2021/11/30 09:12:52;;;;;;;;;;;23.60;47.30;;;;;;1594300;74;644;-63
2021/11/30 09:14:54;;;;;;;;;;;23.60;47.30;;;;;;1594638;74;789;-64
2021/11/30 09:16:56;;;;;;;;;;;23.60;47.20;;;;;;1594946;74;730;-62
2021/11/30 09:18:58;;;;;;;;;;;23.60;47.10;;;;;;1594888;74;1147;-64
2021/11/30 09:21:00;;;;;;;;;;;23.60;47.10;;;;;;1593537;74;1956;-63
2021/11/30 09:23:02;;;;;;;;;;;23.50;47.10;;;;;;1592140;73;794;-61
2021/11/30 09:25:04;;;;;;;;;;;23.60;46.90;;;;;;1587907;74;720;-64
2021/11/30 09:27:06;;;;;;;;;;;23.50;46.90;;;;;;1583599;75;783;-60
2021/11/30 09:29:08;;;;;;;;;;;23.60;46.90;;;;;;1591855;74;1199;-60
2021/11/30 09:31:10;;;;;;;;;;;23.50;46.80;;;;;;1594983;74;769;-62
2021/11/30 09:33:12;;;;;;;;;;;23.60;46.80;;;;;;1594386;74;707;-62
2021/11/30 09:35:14;;;;;;;;;;;23.60;46.80;;;;;;1594710;74;782;-62
2021/11/30 09:37:16;;;;;;;;;;;23.60;46.80;;;;;;1585756;75;746;-64
2021/11/30 09:39:18;;;;;;;;;;;23.60;46.80;;;;;;1594462;74;1125;-63
2021/11/30 09:41:22;;;;;;;;;;;23.60;46.80;;;;;;1589674;73;1917;-62
2021/11/30 09:43:24;;;;;;;;;;;23.60;46.70;;;;;;1591922;73;761;-64
2021/11/30 09:45:26;;;;;;;;;;;23.60;46.70;;;;;;1569057;74;762;-64
2021/11/30 09:47:28;;;;;;;;;;;23.70;46.80;;;;;;1540062;76;784;-64
2021/11/30 09:49:30;;;;;;;;;;;23.60;46.80;;;;;;1540232;76;1153;-66
2021/11/30 09:51:32;;;;;;;;;;;23.70;46.80;;;;;;1586647;75;671;-65
2021/11/30 09:53:34;;;;;;;;;;;23.70;46.80;;;;;;1590555;75;773;-63
2021/11/30 09:55:37;;;;;;;;;;;23.70;46.80;;;;;;1589189;73;726;-63
2021/11/30 09:57:39;;;;;;;;;;;23.60;46.70;;;;;;1584496;73;785;-63
2021/11/30 09:59:46;;;;;;;;;;;23.60;46.70;;;;;;1584802;73;2221;-72
2021/11/30 10:01:45;;;;;;;;;;;23.60;46.70;;;;;;1584363;74;1937;-74
2021/11/30 10:03:47;;;;;;;;;;;23.50;46.70;;;;;;1586290;74;799;-70
2021/11/30 10:05:49;;;;;;;;;;;23.50;46.60;;;;;;1586002;74;757;-69
2021/11/30 10:07:51;;;;;;;;;;;23.50;46.50;;;;;;1576528;74;757;-71
2021/11/30 10:09:55;;;;;;;;;;;23.50;46.30;;;;;;1585541;73;1209;-69
2021/11/30 10:12:01;;;;;;;;;;;23.50;46.30;;;;;;1580727;74;1768;-68
2021/11/30 10:14:14;;;;;;;;;;;23.50;46.30;;;;;;1586186;74;847;-71
2021/11/30 10:16:16;;;;;;;;;;;23.40;46.20;;;;;;1584825;74;744;-68
2021/11/30 10:18:25;;;;;;;;;;;23.50;46.50;;;;;;1585883;74;1125;-70
2021/11/30 10:20:27;;;;;;;;;;;23.50;46.50;;;;;;1579667;74;840;-70
2021/11/30 10:22:43;;;;;;;;;;;23.50;46.50;;;;;;1544103;74;1936;-70
2021/11/30 10:24:44;;;;;;;;;;;23.50;46.40;;;;;;1581084;74;764;-70
2021/11/30 10:26:46;;;;;;;;;;;23.50;46.40;;;;;;1582999;74;705;-69
2021/11/30 10:28:52;;;;;;;;;;;23.50;46.40;;;;;;1585848;73;1162;-70
2021/11/30 10:30:54;;;;;;;;;;;23.50;46.50;;;;;;1580973;74;770;-70
2021/11/30 10:32:57;;;;;;;;;;;23.50;46.50;;;;;;1573281;74;763;-70
2021/11/30 10:34:59;;;;;;;;;;;23.60;46.40;;;;;;1586343;75;804;-70
2021/11/30 10:37:06;;;;;;;;;;;23.60;46.30;;;;;;1591797;75;780;-70
2021/11/30 10:39:09;;;;;;;;;;;23.60;46.30;;;;;;1592111;75;1079;-68
2021/11/30 10:41:16;;;;;;;;;;;23.60;46.30;;;;;;1590224;75;1937;-70
2021/11/30 10:43:18;;;;;;;;;;;23.60;46.30;;;;;;1590819;75;780;-69
2021/11/30 10:45:31;;;;;;;;;;;23.60;46.40;;;;;;1581977;74;717;-70
2021/11/30 10:47:36;;;;;;;;;;;23.60;46.30;;;;;;1581712;75;692;-70
2021/11/30 10:49:47;;;;;;;;;;;23.60;46.40;;;;;;1578398;74;1172;-70
2021/11/30 10:51:53;;;;;;;;;;;23.60;46.50;;;;;;1578776;75;701;-70
2021/11/30 10:53:53;;;;;;;;;;;23.50;46.40;;;;;;1585592;74;1644;-70
2021/11/30 10:55:56;;;;;;;;;;;23.50;46.40;;;;;;1581969;75;725;-70
2021/11/30 10:57:59;;;;;;;;;;;23.50;46.30;;;;;;1579717;75;866;-74
2021/11/30 11:00:10;;;;;;;;;;;23.50;46.30;;;;;;1556191;76;1230;-70
2021/11/30 11:02:12;;;;;;;;;;;23.60;46.40;;;;;;1582846;75;1900;-71
2021/11/30 11:04:14;;;;;;;;;;;23.60;46.30;;;;;;1587005;75;809;-70
2021/11/30 11:06:29;;;;;;;;;;;23.60;46.30;;;;;;1587085;75;725;-70
2021/11/30 11:08:31;;;;;;;;;;;23.60;46.30;;;;;;1586703;73;1093;-71
2021/11/30 11:10:33;;;;;;;;;;;23.60;46.30;;;;;;1587104;75;804;-70
2021/11/30 11:12:35;;;;;;;;;;;23.60;46.30;;;;;;1586255;75;718;-71
2021/11/30 11:14:47;;;;;;;;;;;23.60;46.20;;;;;;1582767;74;811;-70
2021/11/30 11:16:51;;;;;;;;;;;23.60;46.10;;;;;;1582842;74;700;-71
2021/11/30 11:18:54;;;;;;;;;;;23.60;46.20;;;;;;1581005;74;1165;-72
2021/11/30 11:21:09;;;;;;;;;;;23.60;46.30;;;;;;1581282;74;730;-70
2021/11/30 11:23:22;;;;;;;;;;;23.60;46.20;;;;;;1582687;74;1952;-70
2021/11/30 11:25:31;;;;;;;;;;;23.70;46.30;;;;;;1582241;74;1063;-70
2021/11/30 11:27:40;;;;;;;;;;;23.60;46.10;;;;;;1582563;74;731;-70
2021/11/30 11:29:43;;;;;;;;;;;23.60;46.20;;;;;;1586283;74;1153;-69
2021/11/30 11:31:46;;;;;;;;;;;23.70;46.30;;;;;;1583733;74;725;-69
2021/11/30 11:33:48;;;;;;;;;;;23.70;46.20;;;;;;1581104;74;1764;-70
2021/11/30 11:35:50;;;;;;;;;;;23.60;46.10;;;;;;1580257;75;736;-71
2021/11/30 11:37:54;;;;;;;;;;;23.60;46.10;;;;;;1579633;74;732;-66
2021/11/30 11:39:55;;;;;;;;;;;23.70;46.20;;;;;;1581661;74;1110;-68
2021/11/30 11:41:58;;;;;;;;;;;23.70;46.20;;;;;;1582452;75;1945;-69
2021/11/30 11:44:00;;;;;;;;;;;23.70;46.10;;;;;;1586663;75;693;-68
2021/11/30 11:46:02;;;;;;;;;;;23.60;46.00;;;;;;1578677;74;795;-68
2021/11/30 11:48:05;;;;;;;;;;;23.70;46.10;;;;;;1586690;74;717;-69
2021/11/30 11:50:10;;;;;;;;;;;23.60;46.10;;;;;;1585967;73;1091;-69
2021/11/30 11:52:20;;;;;;;;;;;23.60;46.00;;;;;;1586425;75;660;-68
2021/11/30 11:54:28;;;;;;;;;;;23.60;46.00;;;;;;1581588;74;1023;-68
2021/11/30 11:56:30;;;;;;;;;;;23.60;46.00;;;;;;1581845;75;1456;-68
2021/11/30 11:58:31;;;;;;;;;;;23.70;46.10;;;;;;1586452;73;1135;-68
2021/11/30 12:00:33;;;;;;;;;;;23.60;45.90;;;;;;1586114;74;790;-68
2021/11/30 12:02:35;;;;;;;;;;;23.70;46.00;;;;;;1586948;74;1921;-68
2021/11/30 12:04:40;;;;;;;;;;;23.70;46.00;;;;;;1543341;74;1171;-68
2021/11/30 12:07:02;;;;;;;;;;;23.70;45.90;;;;;;1585876;74;836;-69
2021/11/30 12:09:11;;;;;;;;;;;23.70;45.90;;;;;;1583933;73;1183;-68
2021/11/30 12:11:14;;;;;;;;;;;23.70;45.90;;;;;;1585551;74;652;-69
2021/11/30 12:13:19;;;;;;;;;;;23.60;45.90;;;;;;1585297;74;1570;-67
2021/11/30 12:15:23;;;;;;;;;;;23.70;46.00;;;;;;1581683;74;808;-68
2021/11/30 12:17:26;;;;;;;;;;;23.70;46.00;;;;;;1582820;75;693;-68
2021/11/30 12:19:29;;;;;;;;;;;23.70;46.00;;;;;;1578548;75;1117;-67
2021/11/30 12:21:32;;;;;;;;;;;23.80;46.10;;;;;;1583757;75;801;-68
2021/11/30 12:23:34;;;;;;;;;;;23.80;46.10;;;;;;1563840;75;1893;-69